Time;durP1;ratioP1;P1;durP2;ratioP2;P2;SDS_P1;SDS_P2;PMS_P1;PMS_P2;Temp;Humidity;BMP_temperature;BMP_pressure;BME280_temperature;BME280_humidity;BME280_pressure;Samples;Min_cycle;Max_cycle;Signal;HPM_P1;HPM_P2
2021/04/29 00:02:04;;;;;;;29.50;15.32;;;;;;;11.08;43.21;99958.75;5102009;28;20027;-60
2021/04/29 00:04:29;;;;;;;29.38;15.70;;;;;;;11.02;43.25;99954.41;5102938;28;20127;-60
2021/04/29 00:06:55;;;;;;;27.08;15.15;;;;;;;11.03;43.59;99953.53;5103368;28;20019;-61
2021/04/29 00:09:20;;;;;;;27.55;14.88;;;;;;;10.94;43.18;99951.88;5101497;28;20470;-60
2021/04/29 00:11:46;;;;;;;27.95;15.40;;;;;;;10.80;43.93;99952.03;5104180;28;20466;-61
2021/04/29 00:14:12;;;;;;;30.08;15.20;;;;;;;10.74;43.66;99946.78;5100747;28;20066;-61
2021/04/29 00:16:39;;;;;;;27.67;15.23;;;;;;;10.63;43.91;99946.06;5103710;28;20032;-60
2021/04/29 00:19:04;;;;;;;27.23;14.75;;;;;;;10.59;44.08;99950.47;5101534;28;20023;-60
2021/04/29 00:21:29;;;;;;;28.52;15.25;;;;;;;10.48;44.35;99946.19;5102780;28;20031;-60
2021/04/29 00:23:55;;;;;;;27.40;14.93;;;;;;;10.45;44.88;99942.66;5105414;28;20028;-61
2021/04/29 00:26:20;;;;;;;29.58;15.10;;;;;;;10.39;44.84;99947.16;5105356;28;20487;-60
2021/04/29 00:28:46;;;;;;;26.48;14.82;;;;;;;10.27;45.05;99956.91;5108208;28;20095;-60
2021/04/29 00:31:11;;;;;;;28.02;15.57;;;;;;;10.30;45.25;99948.94;5100298;28;20027;-60
2021/04/29 00:33:36;;;;;;;27.10;15.20;;;;;;;10.28;45.49;99945.44;5106957;28;20031;-60
2021/04/29 00:36:03;;;;;;;28.58;15.05;;;;;;;10.21;45.34;99942.88;5105967;28;20046;-60
2021/04/29 00:38:28;;;;;;;30.52;15.70;;;;;;;10.12;46.05;99943.84;5105888;28;20032;-60
2021/04/29 00:40:54;;;;;;;27.58;15.63;;;;;;;9.96;46.42;99948.38;5107038;28;20038;-60
2021/04/29 00:43:20;;;;;;;28.55;15.23;;;;;;;9.82;48.07;99948.44;5103606;28;20050;-60
2021/04/29 00:45:46;;;;;;;28.63;15.95;;;;;;;9.55;48.52;99949.47;5107732;28;20143;-60
2021/04/29 00:48:12;;;;;;;26.75;15.13;;;;;;;9.54;47.95;99955.66;5099973;28;20028;-60
2021/04/29 00:50:37;;;;;;;29.40;15.85;;;;;;;9.10;49.69;99964.63;5107096;28;20027;-60
2021/04/29 00:53:02;;;;;;;30.63;16.33;;;;;;;8.80;50.11;99987.59;5105310;28;20024;-60
2021/04/29 00:55:28;;;;;;;28.85;15.95;;;;;;;8.63;50.66;99998.13;5105714;28;20431;-60
2021/04/29 00:57:53;;;;;;;31.75;16.50;;;;;;;8.43;50.75;100003.38;5106378;28;20041;-60
2021/04/29 01:00:20;;;;;;;30.45;17.45;;;;;;;8.31;51.76;100005.13;5104178;28;20471;-60
2021/04/29 01:02:57;;;;;;;29.73;16.67;;;;;;;8.28;51.87;100006.91;5107426;28;20028;-60
2021/04/29 01:05:29;;;;;;;30.10;16.85;;;;;;;8.42;51.28;99996.34;5102444;28;20020;-60
2021/04/29 01:07:59;;;;;;;29.33;16.17;;;;;;;8.59;50.25;99992.00;5106115;28;20038;-63
2021/04/29 01:10:52;;;;;;;29.33;17.15;;;;;;;8.61;49.82;99998.16;5104746;28;20024;-64
2021/04/29 01:13:21;;;;;;;;;;;;;;;8.79;49.17;100001.63;5100819;28;20024;-62
2021/04/29 01:15:48;;;;;;;30.17;16.40;;;;;;;8.41;50.78;99999.88;5106938;28;19920;-63
2021/04/29 01:18:14;;;;;;;34.55;17.50;;;;;;;8.24;52.46;100003.38;5103755;28;20032;-65
2021/04/29 01:20:58;;;;;;;34.63;18.75;;;;;;;8.06;53.63;100003.38;5106718;28;20064;-64
2021/04/29 01:23:23;;;;;;;32.53;17.85;;;;;;;8.10;53.41;100003.38;5102002;28;20028;-62
2021/04/29 01:25:54;;;;;;;34.75;18.52;;;;;;;7.98;53.93;100009.50;5106699;28;20031;-63
2021/04/29 01:28:20;;;;;;;33.63;17.75;;;;;;;7.99;53.37;100008.66;5104087;28;20047;-64
2021/04/29 01:30:46;;;;;;;32.08;17.67;;;;;;;7.99;53.23;100011.28;5106948;28;20016;-63
2021/04/29 01:33:11;;;;;;;32.70;18.30;;;;;;;7.97;54.44;100020.03;5103050;28;20078;-62
2021/04/29 01:35:37;;;;;;;32.05;16.48;;;;;;;8.04;53.91;100013.91;5106217;28;20016;-62
2021/04/29 01:38:02;;;;;;;29.50;17.02;;;;;;;8.33;52.70;100011.28;5104260;28;20027;-63
2021/04/29 01:40:28;;;;;;;29.90;16.20;;;;;;;8.51;51.93;100006.94;5105103;28;20462;-64
2021/04/29 01:42:54;;;;;;;29.08;16.52;;;;;;;8.55;52.75;100008.69;5105677;28;20024;-63
2021/04/29 01:45:20;;;;;;;29.60;16.08;;;;;;;8.67;52.00;100019.22;5103554;28;20050;-64
2021/04/29 01:47:45;;;;;;;29.20;15.20;;;;;;;8.83;51.34;100020.06;5106586;28;20030;-63
2021/04/29 01:50:12;;;;;;;30.20;15.95;;;;;;;8.90;50.73;100018.31;5103002;28;20077;-64
2021/04/29 01:52:38;;;;;;;27.23;15.23;;;;;;;8.94;50.58;100012.16;5105869;28;20046;-63
2021/04/29 01:55:05;;;;;;;28.27;15.63;;;;;;;9.03;50.99;100017.41;5104095;28;20079;-63
2021/04/29 01:57:30;;;;;;;29.73;16.05;;;;;;;8.92;50.88;100026.22;5104295;28;20028;-62
2021/04/29 01:59:56;;;;;;;29.48;16.33;;;;;;;8.96;51.00;100026.19;5105076;28;20042;-63
2021/04/29 02:02:25;;;;;;;27.65;15.85;;;;;;;8.97;50.89;100027.97;5103422;28;20028;-64
2021/04/29 02:04:50;;;;;;;28.05;15.93;;;;;;;8.97;51.22;100025.31;5105878;27;20028;-64
2021/04/29 02:07:17;;;;;;;27.65;16.00;;;;;;;9.02;51.58;100028.81;5102573;28;20035;-63
2021/04/29 02:09:42;;;;;;;28.52;16.35;;;;;;;8.90;52.15;100032.34;5098858;28;20028;-63
2021/04/29 02:12:10;;;;;;;29.38;16.88;;;;;;;8.85;52.31;100033.25;5105206;28;20470;-64
2021/04/29 02:14:42;;;;;;;28.88;15.70;;;;;;;8.89;52.28;100035.88;5103161;28;20074;-64
2021/04/29 02:17:17;;;;;;;29.40;16.23;;;;;;;8.97;52.32;100034.97;5105673;28;20427;-64
2021/04/29 02:19:45;;;;;;;28.92;16.83;;;;;;;8.82;53.01;100030.63;5097420;28;20032;-64
2021/04/29 02:22:13;;;;;;;29.58;16.15;;;;;;;8.75;53.04;100026.22;5105422;28;20092;-62
2021/04/29 02:24:38;;;;;;;28.98;15.98;;;;;;;8.78;53.31;100018.31;5102648;28;20026;-63
2021/04/29 02:27:04;;;;;;;28.80;16.95;;;;;;;8.79;53.44;100017.44;5104489;28;20024;-64
2021/04/29 02:29:31;;;;;;;30.77;17.00;;;;;;;8.72;53.59;100006.91;5103858;28;20466;-64
2021/04/29 02:31:57;;;;;;;31.08;16.95;;;;;;;8.69;53.80;100017.47;5103329;28;20032;-65
2021/04/29 02:34:23;;;;;;;30.02;16.92;;;;;;;8.62;54.61;100009.56;5105022;28;20096;-63
2021/04/29 02:36:48;;;;;;;30.00;17.70;;;;;;;8.57;54.12;100013.97;5102261;28;20030;-63
2021/04/29 02:39:15;;;;;;;29.77;17.23;;;;;;;8.50;54.59;100007.81;5105378;28;20110;-63
2021/04/29 02:41:41;;;;;;;30.63;17.83;;;;;;;8.45;54.96;100007.81;5102491;28;20047;-64
2021/04/29 02:44:08;;;;;;;28.50;17.00;;;;;;;8.46;54.59;100001.69;5104464;28;20016;-63
2021/04/29 02:46:34;;;;;;;29.80;17.42;;;;;;;8.45;54.93;99991.13;5102560;28;20136;-65
2021/04/29 02:49:00;;;;;;;30.05;17.30;;;;;;;8.43;55.13;99990.22;5103581;28;20020;-63
2021/04/29 02:51:25;;;;;;;30.30;17.75;;;;;;;8.41;55.69;99965.66;5104056;28;20063;-63
2021/04/29 02:53:51;;;;;;;29.95;17.65;;;;;;;8.40;55.35;99954.22;5102020;28;20112;-64
2021/04/29 02:56:17;;;;;;;30.58;18.05;;;;;;;8.32;55.47;99948.97;5105552;28;20023;-64
2021/04/29 02:58:49;;;;;;;32.67;18.55;;;;;;;8.39;55.58;99949.84;5101610;28;20164;-64
2021/04/29 03:01:15;;;;;;;30.42;18.38;;;;;;;8.47;55.65;99950.72;5097609;28;20360;-62
2021/04/29 03:03:41;;;;;;;30.13;17.67;;;;;;;8.47;55.95;99947.22;5104934;28;20482;-63
2021/04/29 03:06:07;;;;;;;30.17;17.67;;;;;;;8.44;56.23;99953.38;5102363;28;20147;-62
2021/04/29 03:08:33;;;;;;;31.20;18.10;;;;;;;8.50;56.19;99970.94;5103558;28;20124;-64
2021/04/29 03:10:59;;;;;;;30.25;18.17;;;;;;;8.53;56.24;99976.19;5103464;28;20031;-64
2021/04/29 03:13:25;;;;;;;29.90;17.75;;;;;;;8.38;56.84;99983.19;5102449;28;20421;-63
2021/04/29 03:15:50;;;;;;;31.00;18.40;;;;;;;8.49;56.86;99991.13;5104423;28;20016;-64
2021/04/29 03:18:16;;;;;;;30.85;18.60;;;;;;;8.40;57.23;99983.19;5101818;28;20027;-62
2021/04/29 03:20:42;;;;;;;30.65;18.65;;;;;;;8.40;57.15;99985.81;5104554;28;20438;-61
2021/04/29 03:23:07;;;;;;;31.30;19.50;;;;;;;8.34;57.76;99989.34;5102204;28;20020;-61
2021/04/29 03:25:33;;;;;;;29.75;18.85;;;;;;;8.41;57.97;99989.34;5103376;28;20020;-61
2021/04/29 03:27:58;;;;;;;31.17;19.20;;;;;;;8.36;58.05;99987.59;5103067;28;20031;-62
2021/04/29 03:30:24;;;;;;;30.35;19.02;;;;;;;8.37;57.89;99981.44;5102200;28;20115;-61
2021/04/29 03:32:49;;;;;;;31.90;19.38;;;;;;;8.38;58.24;99988.44;5104685;28;20031;-61
2021/04/29 03:35:15;;;;;;;31.45;19.45;;;;;;;8.35;58.44;99985.81;5100999;28;20034;-61
2021/04/29 03:37:40;;;;;;;31.08;19.23;;;;;;;8.34;58.57;99989.34;5103030;28;20058;-60
2021/04/29 03:40:06;;;;;;;32.38;19.90;;;;;;;8.13;59.74;99998.13;5102218;28;20016;-60
2021/04/29 03:42:31;;;;;;;32.92;20.20;;;;;;;8.03;60.29;99998.97;5102884;28;20016;-60
2021/04/29 03:44:57;;;;;;;31.05;19.83;;;;;;;7.96;61.13;100003.34;5103572;28;20102;-60
2021/04/29 03:47:22;;;;;;;34.42;21.33;;;;;;;7.88;61.20;100002.47;5101604;28;20024;-60
2021/04/29 03:49:47;;;;;;;32.97;20.45;;;;;;;7.82;61.32;100005.97;5104736;28;20020;-60
2021/04/29 03:52:13;;;;;;;34.20;21.33;;;;;;;7.82;61.94;100016.50;5101415;28;20020;-60
2021/04/29 03:54:38;;;;;;;30.95;20.60;;;;;;;7.87;61.87;100002.47;5103725;28;20038;-60
2021/04/29 03:57:04;;;;;;;31.15;20.38;;;;;;;7.90;61.64;100005.97;5102354;28;20019;-60
2021/04/29 03:59:29;;;;;;;33.47;21.15;;;;;;;7.85;62.39;100011.22;5106355;28;20035;-60
2021/04/29 04:01:54;;;;;;;33.78;20.90;;;;;;;7.89;62.17;100005.97;5107716;28;20030;-60
2021/04/29 04:04:20;;;;;;;31.55;20.38;;;;;;;7.84;62.78;100003.34;5105432;28;20055;-60
2021/04/29 04:06:46;;;;;;;32.65;20.80;;;;;;;7.88;63.70;100009.47;5108387;28;20039;-60
2021/04/29 04:09:11;;;;;;;32.58;20.48;;;;;;;7.87;63.73;100008.59;5105245;28;20030;-60
2021/04/29 04:11:36;;;;;;;35.17;22.27;;;;;;;7.83;64.13;100002.47;5107459;28;20034;-61
2021/04/29 04:14:02;;;;;;;33.60;21.55;;;;;;;7.89;64.69;100000.72;5106261;28;20047;-60
2021/04/29 04:16:29;;;;;;;34.15;22.50;;;;;;;7.97;65.27;99998.97;5106306;28;20112;-60
2021/04/29 04:18:54;;;;;;;33.88;22.70;;;;;;;7.98;65.82;100006.88;5107581;28;20076;-60
2021/04/29 04:21:20;;;;;;;32.92;21.98;;;;;;;7.98;66.54;100009.50;5104927;28;20417;-60
2021/04/29 04:23:45;;;;;;;35.53;22.98;;;;;;;7.99;67.31;100008.66;5107990;28;20031;-60
2021/04/29 04:26:10;;;;;;;34.33;22.92;;;;;;;7.95;67.59;100014.78;5105152;28;20039;-60
2021/04/29 04:28:36;;;;;;;34.85;23.30;;;;;;;7.94;67.90;100015.63;5106835;28;20024;-60
2021/04/29 04:31:01;;;;;;;36.58;25.98;;;;;;;7.88;69.55;100025.25;5106098;28;20063;-60
2021/04/29 04:33:26;;;;;;;36.40;25.05;;;;;;;7.63;71.36;100026.09;5105567;28;20077;-60
2021/04/29 04:35:52;;;;;;;34.58;24.20;;;;;;;7.63;71.43;100031.34;5107393;28;20478;-60
2021/04/29 04:38:17;;;;;;;38.53;26.75;;;;;;;7.60;72.35;100028.72;5104353;28;20072;-60
2021/04/29 04:40:44;;;;;;;38.58;27.25;;;;;;;7.56;72.84;100045.34;5107613;28;20054;-60
2021/04/29 04:43:09;;;;;;;38.13;26.65;;;;;;;7.66;72.95;100049.78;5105006;28;20397;-60
2021/04/29 04:45:34;;;;;;;38.72;27.80;;;;;;;7.61;73.55;100054.13;5106416;28;20072;-60
2021/04/29 04:48:00;;;;;;;39.45;27.15;;;;;;;7.49;74.31;100043.56;5106048;28;20035;-60
2021/04/29 04:50:25;;;;;;;38.80;28.55;;;;;;;7.46;74.42;100049.69;5104838;28;20490;-61
2021/04/29 04:52:50;;;;;;;37.95;27.25;;;;;;;7.40;75.03;100052.28;5107460;28;20126;-60
2021/04/29 04:55:16;;;;;;;39.40;29.25;;;;;;;7.30;76.21;100058.38;5102559;28;20036;-60
2021/04/29 04:57:42;;;;;;;42.70;30.25;;;;;;;7.22;76.99;100063.56;5107172;28;20051;-60
2021/04/29 05:00:08;;;;;;;40.45;30.35;;;;;;;7.15;77.72;100064.44;5104704;28;20055;-60
2021/04/29 05:02:37;;;;;;;40.22;30.08;;;;;;;7.12;78.25;100069.66;5105901;28;20024;-61
2021/04/29 05:05:06;;;;;;;42.30;31.05;;;;;;;7.12;78.66;100064.38;5105362;28;20024;-60
2021/04/29 05:07:32;;;;;;;43.83;31.50;;;;;;;7.09;78.95;100067.91;5105574;28;20049;-60
2021/04/29 05:09:58;;;;;;;42.80;30.88;;;;;;;7.10;79.61;100074.03;5105639;28;20102;-60
2021/04/29 05:12:23;;;;;;;42.17;32.13;;;;;;;7.10;79.66;100082.78;5104157;28;20485;-60
2021/04/29 05:14:48;;;;;;;43.53;32.50;;;;;;;7.15;79.62;100082.84;5106875;28;20059;-60
2021/04/29 05:17:13;;;;;;;42.72;30.27;;;;;;;7.24;79.40;100084.66;5103598;28;20123;-60
2021/04/29 05:19:39;;;;;;;45.15;30.85;;;;;;;7.37;77.86;100080.31;5106279;28;20132;-63
2021/04/29 05:22:04;;;;;;;42.70;30.00;;;;;;;7.26;78.96;100081.13;5104928;28;20607;-62
2021/04/29 05:24:30;;;;;;;44.97;33.05;;;;;;;7.21;79.48;100080.25;5104850;28;20035;-62
2021/04/29 05:26:55;;;;;;;46.30;33.03;;;;;;;7.12;80.24;100083.69;5106259;28;20158;-62
2021/04/29 05:29:20;;;;;;;45.08;33.78;;;;;;;7.10;80.99;100088.03;5103890;28;20020;-62
2021/04/29 05:31:46;;;;;;;43.42;33.42;;;;;;;7.08;80.66;100095.03;5106629;28;20477;-61
2021/04/29 05:34:11;;;;;;;46.13;33.92;;;;;;;7.05;80.98;100089.78;5103931;28;20466;-63
2021/04/29 05:36:37;;;;;;;46.60;34.60;;;;;;;7.05;81.81;100094.13;5093673;28;20382;-62
2021/04/29 05:39:04;;;;;;;44.83;33.92;;;;;;;7.04;81.87;100085.38;5096989;28;20055;-63
2021/04/29 05:41:29;;;;;;;50.08;37.38;;;;;;;7.08;81.88;100094.19;5094384;28;20023;-63
2021/04/29 05:43:54;;;;;;;46.28;35.88;;;;;;;7.19;81.50;100097.72;5096159;28;20020;-62
2021/04/29 05:46:20;;;;;;;43.95;33.80;;;;;;;7.30;80.16;100101.31;5093819;28;20024;-60
2021/04/29 05:48:45;;;;;;;46.70;35.55;;;;;;;7.38;80.28;100103.09;5093602;28;20020;-60
2021/04/29 05:51:10;;;;;;;47.25;35.58;;;;;;;7.46;79.14;100101.41;5093794;28;20496;-59
2021/04/29 05:53:36;;;;;;;48.25;36.00;;;;;;;7.61;79.08;100097.97;5095627;28;20016;-60
2021/04/29 05:56:01;;;;;;;48.38;35.38;;;;;;;7.70;78.43;100097.13;5095478;28;20024;-60
2021/04/29 05:58:26;;;;;;;47.28;34.85;;;;;;;7.72;78.59;100092.75;5092704;28;20020;-59
2021/04/29 06:00:52;;;;;;;46.47;34.65;;;;;;;7.72;78.26;100091.00;5093428;28;20032;-60
2021/04/29 06:03:17;;;;;;;44.58;34.78;;;;;;;7.74;78.64;100099.78;5099610;28;20052;-60
2021/04/29 06:05:42;;;;;;;46.65;34.72;;;;;;;7.70;77.68;100107.66;5101206;28;20057;-60
2021/04/29 06:08:08;;;;;;;46.42;34.28;;;;;;;7.66;77.47;100102.38;5097183;28;20066;-61
2021/04/29 06:10:35;;;;;;;46.00;34.78;;;;;;;7.65;77.99;100100.63;5101001;28;20070;-60
2021/04/29 06:13:04;;;;;;;45.00;33.60;;;;;;;7.66;77.58;100104.16;5098553;27;20032;-60
2021/04/29 06:15:30;;;;;;;49.13;35.38;;;;;;;7.68;77.97;100103.25;5098242;28;20040;-61
2021/04/29 06:17:55;;;;;;;48.80;35.70;;;;;;;7.74;77.89;100099.78;5096796;28;20402;-60
2021/04/29 06:20:20;;;;;;;46.40;34.45;;;;;;;7.91;77.39;100104.25;5100555;28;20035;-60
2021/04/29 06:22:46;;;;;;;48.78;38.13;;;;;;;7.96;76.90;100103.34;5099849;28;20024;-61
2021/04/29 06:25:12;;;;;;;45.38;33.45;;;;;;;8.05;76.57;100113.03;5097987;28;20454;-60
2021/04/29 06:27:39;;;;;;;46.60;37.35;;;;;;;8.04;74.90;100121.84;5100199;28;20403;-61
2021/04/29 06:30:06;;;;;;;47.58;36.38;;;;;;;8.07;76.42;100111.31;5097604;28;20466;-61
2021/04/29 06:32:32;;;;;;;46.92;35.70;;;;;;;8.04;76.60;100106.03;5101279;28;20370;-62
2021/04/29 06:34:57;;;;;;;47.38;35.10;;;;;;;7.99;76.06;100108.66;5096906;28;20031;-62
2021/04/29 06:37:22;;;;;;;47.42;36.00;;;;;;;7.97;76.34;100109.53;5098701;28;20439;-61
2021/04/29 06:39:48;;;;;;;48.95;34.53;;;;;;;8.07;76.75;100111.31;5101868;28;20382;-62
2021/04/29 06:42:14;;;;;;;46.83;36.78;;;;;;;8.07;76.26;100113.94;5098720;28;20059;-62
2021/04/29 06:44:40;;;;;;;46.85;36.47;;;;;;;8.18;76.52;100113.97;5099283;28;20036;-62
2021/04/29 06:47:05;;;;;;;46.55;35.53;;;;;;;8.24;76.21;100108.69;5097340;28;20070;-62
2021/04/29 06:49:31;;;;;;;46.67;34.00;;;;;;;8.36;75.84;100115.78;5100337;28;20016;-62
2021/04/29 06:51:56;;;;;;;48.10;37.15;;;;;;;8.30;74.27;100119.25;5096846;28;20032;-61
2021/04/29 06:54:21;;;;;;;45.97;36.50;;;;;;;8.31;73.97;100121.00;5102788;28;20093;-61
2021/04/29 06:56:47;;;;;;;48.92;38.22;;;;;;;8.50;74.29;100124.59;5097697;28;20454;-61
2021/04/29 06:59:12;;;;;;;44.90;33.67;;;;;;;8.88;72.48;100118.47;5100915;28;20436;-62
2021/04/29 07:01:38;;;;;;;47.10;35.40;;;;;;;9.06;71.87;100109.66;5097781;28;20027;-61
2021/04/29 07:04:04;;;;;;;44.15;33.25;;;;;;;9.11;71.64;100108.78;5098884;28;20023;-62
2021/04/29 07:06:29;;;;;;;44.78;35.40;;;;;;;9.04;71.37;100103.53;5107639;28;20099;-64
2021/04/29 07:08:56;;;;;;;45.92;35.58;;;;;;;8.91;72.40;100125.47;5112780;28;20450;-63
2021/04/29 07:11:21;;;;;;;45.15;34.90;;;;;;;8.91;71.96;100120.22;5102067;28;20020;-63
2021/04/29 07:13:47;;;;;;;47.80;35.92;;;;;;;8.85;72.46;100118.47;5100467;28;20039;-64
2021/04/29 07:16:12;;;;;;;46.13;34.13;;;;;;;8.76;72.11;100131.63;5106650;28;20435;-63
2021/04/29 07:18:37;;;;;;;45.22;33.75;;;;;;;8.97;72.11;100130.78;5101474;28;20024;-64
2021/04/29 07:21:03;;;;;;;45.22;33.08;;;;;;;9.28;71.71;100137.78;5105049;28;20024;-63
2021/04/29 07:23:29;;;;;;;46.55;34.85;;;;;;;9.30;70.13;100136.88;5100915;28;20039;-62
2021/04/29 07:25:54;;;;;;;47.38;34.85;;;;;;;9.03;71.64;100138.66;5099965;28;20032;-64
2021/04/29 07:28:21;;;;;;;45.58;35.33;;;;;;;9.00;72.29;100136.03;5101716;28;20077;-63
2021/04/29 07:30:46;;;;;;;46.50;35.13;;;;;;;8.93;71.99;100134.28;5100960;28;20047;-64
2021/04/29 07:33:12;;;;;;;45.78;33.92;;;;;;;8.94;72.23;100141.31;5100763;28;20417;-62
2021/04/29 07:35:38;;;;;;;47.10;35.53;;;;;;;8.85;72.25;100152.75;5098231;28;20394;-63
2021/04/29 07:38:04;;;;;;;47.45;35.92;;;;;;;8.76;72.50;100138.69;5098250;28;20020;-63
2021/04/29 07:40:30;;;;;;;45.65;34.45;;;;;;;8.78;72.27;100139.53;5090867;28;20032;-63
2021/04/29 07:42:56;;;;;;;52.58;37.42;;;;;;;8.64;72.97;100145.69;5093513;28;20022;-63
2021/04/29 07:45:21;;;;;;;47.90;35.33;;;;;;;8.65;73.04;100146.56;5094272;28;20063;-62
2021/04/29 07:47:46;;;;;;;50.22;37.72;;;;;;;8.50;73.73;100147.41;5098396;28;20351;-62
2021/04/29 07:50:13;;;;;;;50.15;38.05;;;;;;;8.46;74.08;100148.28;5097794;28;20016;-62
2021/04/29 07:52:40;;;;;;;51.60;37.63;;;;;;;8.46;74.64;100151.81;5098673;28;20031;-61
2021/04/29 07:55:07;;;;;;;52.20;38.05;;;;;;;8.43;74.25;100156.16;5099267;28;20079;-62
2021/04/29 07:57:32;;;;;;;48.15;38.58;;;;;;;8.37;74.59;100149.09;5100596;28;20019;-63
2021/04/29 07:59:57;;;;;;;51.45;39.17;;;;;;;8.24;74.74;100145.56;5097933;28;20097;-62
2021/04/29 08:02:23;;;;;;;53.42;39.92;;;;;;;8.25;74.93;100155.22;5096947;28;20459;-63
2021/04/29 08:04:48;;;;;;;51.20;39.22;;;;;;;8.23;74.77;100151.72;5095790;28;20039;-61
2021/04/29 08:07:13;;;;;;;53.05;40.20;;;;;;;8.24;75.80;100155.22;5096113;28;20024;-62
2021/04/29 08:09:39;;;;;;;52.60;39.72;;;;;;;8.20;75.55;100154.34;5101919;28;20444;-62
2021/04/29 08:12:04;;;;;;;53.90;41.13;;;;;;;8.12;76.46;100159.56;5103901;28;20032;-63
2021/04/29 08:14:29;;;;;;;56.45;42.60;;;;;;;7.99;77.71;100158.66;5100430;28;20059;-63
2021/04/29 08:16:55;;;;;;;60.05;45.35;;;;;;;7.92;79.75;100162.16;5102985;28;20110;-64
2021/04/29 08:19:20;;;;;;;57.47;45.20;;;;;;;7.84;80.54;100169.13;5101916;28;20097;-64
2021/04/29 08:21:47;;;;;;;59.28;45.13;;;;;;;7.76;81.48;100168.19;5102043;28;20463;-63
2021/04/29 08:24:12;;;;;;;55.63;44.38;;;;;;;7.72;81.54;100171.66;5101653;28;20023;-63
2021/04/29 08:26:38;;;;;;;62.25;47.65;;;;;;;7.64;83.36;100180.41;5100524;28;20414;-63
2021/04/29 08:29:03;;;;;;;66.45;50.47;;;;;;;7.51;86.16;100183.84;5104460;28;20483;-63
2021/04/29 08:31:29;;;;;;;68.07;52.10;;;;;;;7.42;88.61;100178.53;5100889;28;20028;-64
2021/04/29 08:33:54;;;;;;;66.68;52.65;;;;;;;7.31;88.73;100187.22;5102942;28;20041;-63
2021/04/29 08:36:20;;;;;;;64.45;51.28;;;;;;;7.31;90.00;100186.31;5102591;28;20044;-64
2021/04/29 08:38:45;;;;;;;65.70;50.97;;;;;;;7.30;90.48;100190.72;5101769;28;20036;-64
2021/04/29 08:41:10;;;;;;;71.95;53.45;;;;;;;7.28;93.22;100194.19;5100663;28;20032;-64
2021/04/29 08:43:37;;;;;;;76.53;56.28;;;;;;;7.19;95.14;100197.63;5098928;28;20026;-64
2021/04/29 08:46:05;;;;;;;80.75;58.45;;;;;;;7.22;100.00;100195.03;5104013;28;20095;-64
2021/04/29 08:48:30;;;;;;;81.20;57.75;;;;;;;7.35;100.00;100198.63;5103808;28;20028;-63
2021/04/29 08:50:56;;;;;;;85.55;59.22;;;;;;;7.38;100.00;100203.03;5105211;28;20412;-61
2021/04/29 08:53:21;;;;;;;78.03;57.13;;;;;;;7.35;100.00;100203.00;5103121;28;20028;-62
2021/04/29 08:55:46;;;;;;;80.68;56.67;;;;;;;7.43;100.00;100198.69;5102478;28;20115;-61
2021/04/29 08:58:12;;;;;;;85.80;61.13;;;;;;;7.29;100.00;100209.97;5106920;28;20073;-62
2021/04/29 09:00:38;;;;;;;84.60;61.80;;;;;;;7.32;100.00;100206.50;5102315;28;20031;-61
2021/04/29 09:03:04;;;;;;;82.90;60.20;;;;;;;7.32;100.00;100206.50;5099686;28;20088;-62
2021/04/29 09:05:32;;;;;;;76.85;56.10;;;;;;;7.32;100.00;100215.28;5101965;28;20015;-63
2021/04/29 09:08:08;;;;;;;85.53;61.00;;;;;;;7.20;100.00;100209.91;5099709;28;20069;-64
2021/04/29 09:10:35;;;;;;;80.55;57.33;;;;;;;7.27;100.00;100216.13;5101478;28;20426;-62
2021/04/29 09:13:16;;;;;;;84.68;59.85;;;;;;;7.13;100.00;100215.97;5101541;28;20034;-62
2021/04/29 09:15:41;;;;;;;80.18;59.45;;;;;;;7.13;100.00;100216.84;5096618;28;20044;-62
2021/04/29 09:18:13;;;;;;;80.25;58.30;;;;;;;7.19;100.00;100221.28;5099263;28;20053;-61
2021/04/29 09:20:49;;;;;;;80.68;60.25;;;;;;;7.15;100.00;100223.03;5101707;28;20367;-62
2021/04/29 09:23:18;;;;;;;77.30;57.40;;;;;;;7.21;100.00;100226.56;5096704;28;20028;-61
2021/04/29 09:25:52;;;;;;;74.65;55.13;;;;;;;7.27;100.00;100232.75;5100914;28;20012;-62
2021/04/29 09:28:17;;;;;;;72.15;53.58;;;;;;;7.14;100.00;100233.53;5097553;28;20020;-62
2021/04/29 09:30:43;;;;;;;68.35;54.03;;;;;;;7.09;100.00;100230.88;5100642;28;20023;-62
2021/04/29 09:33:08;;;;;;;66.43;51.72;;;;;;;6.98;100.00;100237.75;5096937;28;20417;-62
2021/04/29 09:35:39;;;;;;;70.32;52.20;;;;;;;7.08;100.00;100241.38;5103938;28;20043;-62
2021/04/29 09:38:11;;;;;;;73.68;54.88;;;;;;;6.93;100.00;100242.97;5101008;28;20448;-62
2021/04/29 09:40:39;;;;;;;74.70;56.57;;;;;;;6.89;100.00;100241.19;5099261;28;20012;-62
2021/04/29 09:43:07;;;;;;;77.80;57.40;;;;;;;7.06;100.00;100245.72;5100879;28;20035;-61
2021/04/29 09:45:33;;;;;;;76.38;57.10;;;;;;;7.12;100.00;100241.41;5104527;27;20387;-62
2021/04/29 09:48:00;;;;;;;70.88;53.50;;;;;;;7.19;100.00;100242.31;5103911;28;20030;-62
2021/04/29 09:50:28;;;;;;;57.00;47.03;;;;;;;7.07;100.00;100250.09;5104729;28;20381;-61
2021/04/29 09:53:05;;;;;;;63.22;48.42;;;;;;;6.98;100.00;100266.69;5104064;28;20344;-62
2021/04/29 09:55:32;;;;;;;56.28;44.20;;;;;;;7.01;100.00;100261.44;5099914;28;20027;-61
2021/04/29 09:58:10;;;;;;;62.15;48.75;;;;;;;6.75;100.00;100276.94;5098664;28;20111;-64
2021/04/29 10:00:37;;;;;;;60.78;50.15;;;;;;;6.69;100.00;100276.88;5100153;28;20036;-63
2021/04/29 10:03:03;;;;;;;59.05;45.33;;;;;;;6.64;100.00;100284.72;5104663;28;20024;-62
2021/04/29 10:05:32;;;;;;;57.38;42.97;;;;;;;6.69;100.00;100284.75;5102045;28;20020;-64
2021/04/29 10:07:57;;;;;;;53.40;41.38;;;;;;;6.72;100.00;100297.94;5097845;28;20054;-63
2021/04/29 10:10:24;;;;;;;53.20;42.53;;;;;;;6.60;100.00;100302.16;5100884;28;20466;-64
2021/04/29 10:12:51;;;;;;;48.42;36.65;;;;;;;6.52;100.00;100306.44;5101791;28;20477;-63
2021/04/29 10:15:17;;;;;;;49.28;36.15;;;;;;;6.52;100.00;100290.69;5103082;28;20406;-64
2021/04/29 10:17:42;;;;;;;49.25;36.60;;;;;;;6.53;100.00;100302.09;5104264;28;20024;-64
2021/04/29 10:20:13;;;;;;;46.30;33.85;;;;;;;6.56;100.00;100313.50;5100117;28;20024;-64
2021/04/29 10:22:39;;;;;;;49.95;38.60;;;;;;;6.48;98.99;100323.03;5099462;28;20042;-64
2021/04/29 10:25:05;;;;;;;47.25;37.60;;;;;;;6.49;99.90;100319.53;5102666;28;20032;-63
2021/04/29 10:27:30;;;;;;;48.50;35.13;;;;;;;6.69;98.80;100339.94;5101563;28;20023;-61
2021/04/29 10:30:13;;;;;;;44.72;33.90;;;;;;;6.76;96.62;100331.25;5103505;28;20024;-62
2021/04/29 10:32:39;;;;;;;45.40;36.70;;;;;;;6.54;97.40;100335.34;5104625;28;20024;-62
2021/04/29 10:35:21;;;;;;;43.13;30.55;;;;;;;6.47;93.88;100337.03;5102487;28;20131;-62
2021/04/29 10:37:58;;;;;;;44.63;35.17;;;;;;;6.63;91.34;100348.59;5098687;28;20418;-62
2021/04/29 10:40:35;;;;;;;45.33;33.42;;;;;;;6.49;94.12;100351.03;5104052;28;20039;-62
2021/04/29 10:43:01;;;;;;;41.75;29.08;;;;;;;6.47;91.86;100354.53;5104236;28;20454;-62
2021/04/29 10:45:27;;;;;;;45.75;34.95;;;;;;;6.41;92.13;100364.06;5103746;28;20103;-63
2021/04/29 10:48:06;;;;;;;45.10;34.58;;;;;;;6.50;93.61;100365.94;5102477;28;20485;-62
2021/04/29 10:50:45;;;;;;;47.90;35.53;;;;;;;6.47;95.01;100376.41;5102592;28;20398;-62
2021/04/29 10:53:12;;;;;;;45.38;35.53;;;;;;;6.38;93.27;100374.53;5105015;28;20027;-62
2021/04/29 10:55:39;;;;;;;42.97;31.63;;;;;;;6.63;91.74;100370.50;5105576;28;20028;-65
2021/04/29 10:58:06;;;;;;;42.80;34.40;;;;;;;6.43;90.38;100385.97;5098770;28;20070;-65
2021/04/29 11:00:35;;;;;;;41.80;29.80;;;;;;;6.56;92.06;100384.41;5099846;28;20020;-73
2021/04/29 11:03:03;;;;;;;45.97;34.40;;;;;;;6.55;93.42;100393.16;5095694;28;20091;-66
2021/04/29 11:05:31;;;;;;;41.30;32.25;;;;;;;6.66;91.62;100392.44;5097346;28;20415;-64
2021/04/29 11:08:06;;;;;;;38.25;29.33;;;;;;;6.66;89.28;100401.19;5095427;28;20077;-65
2021/04/29 11:10:34;;;;;;;41.83;32.70;;;;;;;6.45;90.27;100396.50;5096318;28;20086;-64
2021/04/29 11:13:01;;;;;;;41.78;33.15;;;;;;;6.48;92.41;100419.28;5092743;28;20073;-65
2021/04/29 11:15:30;;;;;;;41.13;31.52;;;;;;;6.30;91.84;100415.53;5094720;28;20074;-63